createdAt,value
2022-11-25T00:01:30.727Z,5.69
2022-11-25T00:03:59.028Z,5.71
2022-11-25T00:06:29.799Z,5.74
2022-11-25T00:08:59.857Z,5.78
2022-11-25T00:11:27.647Z,5.78
2022-11-25T00:13:56.628Z,5.76
2022-11-25T00:16:26.556Z,5.77
2022-11-25T00:18:56.105Z,5.79
2022-11-25T00:21:26.665Z,5.81
2022-11-25T00:24:00.240Z,5.80
2022-11-25T00:26:29.705Z,5.80
2022-11-25T00:28:59.257Z,5.80
2022-11-25T00:31:29.203Z,5.77
2022-11-25T00:33:57.546Z,5.76
2022-11-25T00:36:26.360Z,5.71
2022-11-25T00:38:59.302Z,5.69
2022-11-25T00:41:47.383Z,5.71
2022-11-25T00:44:36.950Z,5.74
2022-11-25T00:47:15.672Z,5.78
2022-11-25T00:49:54.864Z,5.80
2022-11-25T00:52:25.020Z,5.82
2022-11-25T00:54:53.940Z,5.83
2022-11-25T00:57:23.429Z,5.76
2022-11-25T00:59:51.734Z,5.67
2022-11-25T01:02:22.887Z,5.61
2022-11-25T01:04:50.704Z,5.60
2022-11-25T01:07:18.789Z,5.64
2022-11-25T01:09:48.085Z,5.67
2022-11-25T01:12:15.805Z,5.71
2022-11-25T01:14:43.558Z,5.72
2022-11-25T01:17:11.309Z,5.73
2022-11-25T01:19:40.340Z,5.75
2022-11-25T01:22:09.418Z,5.81
2022-11-25T01:24:37.543Z,5.82
2022-11-25T01:27:05.777Z,5.80
2022-11-25T01:29:33.616Z,5.80
2022-11-25T01:32:01.383Z,5.81
2022-11-25T01:34:32.036Z,5.80
2022-11-25T01:37:00.026Z,5.82
2022-11-25T01:39:32.556Z,5.85
2022-11-25T01:42:01.774Z,5.87
2022-11-25T01:44:31.984Z,5.85
2022-11-25T01:47:23.456Z,5.85
2022-11-25T01:49:57.812Z,5.89
2022-11-25T01:52:33.366Z,5.92
2022-11-25T01:55:25.818Z,5.89
2022-11-25T01:58:05.096Z,5.86
2022-11-25T02:00:33.001Z,5.82
2022-11-25T02:03:00.843Z,5.77
2022-11-25T02:05:39.503Z,5.78
2022-11-25T02:08:08.889Z,5.75
2022-11-25T02:10:38.597Z,5.75
2022-11-25T02:13:06.343Z,5.79
2022-11-25T02:15:37.461Z,5.83
2022-11-25T02:18:05.421Z,5.84
2022-11-25T02:20:33.286Z,5.85
2022-11-25T02:23:26.469Z,5.87
2022-11-25T02:25:55.561Z,5.88
2022-11-25T02:28:25.998Z,5.87
2022-11-25T02:30:54.418Z,5.88
2022-11-25T02:33:24.573Z,5.89
2022-11-25T02:35:57.466Z,5.91
2022-11-25T02:38:35.427Z,5.94
2022-11-25T02:41:17.510Z,5.97
2022-11-25T02:43:47.337Z,5.98
2022-11-25T02:46:22.413Z,6.00
2022-11-25T02:49:08.377Z,5.92
2022-11-25T02:51:38.531Z,5.84
2022-11-25T02:54:06.808Z,5.85
2022-11-25T02:56:35.879Z,5.88
2022-11-25T02:59:04.593Z,5.89
2022-11-25T03:01:32.999Z,5.85
2022-11-25T03:04:01.146Z,5.90
2022-11-25T03:06:29.480Z,5.99
2022-11-25T03:08:57.899Z,6.00
2022-11-25T03:11:46.553Z,6.05
2022-11-25T03:14:15.058Z,6.10
2022-11-25T03:16:43.908Z,6.15
2022-11-25T03:19:11.858Z,6.18
2022-11-25T03:21:39.589Z,6.19
2022-11-25T03:24:07.627Z,6.18
2022-11-25T03:26:35.369Z,6.17
2022-11-25T03:29:03.354Z,6.19
2022-11-25T03:31:31.341Z,6.22
2022-11-25T03:33:59.310Z,6.25
2022-11-25T03:36:27.029Z,6.23
2022-11-25T03:38:54.807Z,6.19
2022-11-25T03:41:22.573Z,6.19
2022-11-25T03:43:50.923Z,6.16
2022-11-25T03:46:18.841Z,6.18
2022-11-25T03:48:47.372Z,6.19
2022-11-25T03:51:15.060Z,6.21
2022-11-25T03:53:44.555Z,6.23
2022-11-25T03:56:12.773Z,6.22
2022-11-25T03:58:40.636Z,6.20
2022-11-25T04:01:09.810Z,6.23
2022-11-25T04:03:37.870Z,6.27
2022-11-25T04:06:05.732Z,6.32
2022-11-25T04:08:33.708Z,6.33
2022-11-25T04:11:01.980Z,6.29
2022-11-25T04:13:32.172Z,6.25
2022-11-25T04:15:59.916Z,6.21
2022-11-25T04:18:28.178Z,6.20
2022-11-25T04:20:58.089Z,6.18
2022-11-25T04:23:25.763Z,6.17
2022-11-25T04:26:00.628Z,6.18
2022-11-25T04:28:35.270Z,6.17
2022-11-25T04:31:08.263Z,6.16
2022-11-25T04:33:38.579Z,6.15
2022-11-25T04:36:07.145Z,6.13
2022-11-25T04:38:35.325Z,6.10
2022-11-25T04:41:03.392Z,6.05
2022-11-25T04:43:34.989Z,6.01
2022-11-25T04:46:14.032Z,5.97
2022-11-25T04:48:43.572Z,5.98
2022-11-25T04:51:11.360Z,5.99
2022-11-25T04:53:40.143Z,6.02
2022-11-25T04:56:09.247Z,6.03
2022-11-25T04:59:00.940Z,5.99
2022-11-25T05:01:28.897Z,5.95
2022-11-25T05:04:02.853Z,5.87
2022-11-25T05:06:30.740Z,5.86
2022-11-25T05:08:59.120Z,5.87
2022-11-25T05:11:27.468Z,5.82
2022-11-25T05:13:56.287Z,5.81
2022-11-25T05:16:24.239Z,5.78
2022-11-25T05:18:55.543Z,5.85
2022-11-25T05:21:24.534Z,5.96
2022-11-25T05:23:56.002Z,6.06
2022-11-25T05:26:24.647Z,6.17
2022-11-25T05:28:54.844Z,6.24
2022-11-25T05:31:22.623Z,6.30
2022-11-25T05:33:51.098Z,6.34
2022-11-25T05:36:19.213Z,6.36
2022-11-25T05:38:47.998Z,6.36
2022-11-25T05:41:20.956Z,6.34
2022-11-25T05:43:48.999Z,6.36
2022-11-25T05:46:17.908Z,6.38
2022-11-25T05:48:52.732Z,6.42
2022-11-25T05:51:21.478Z,6.43
2022-11-25T05:53:49.829Z,6.42
2022-11-25T05:56:18.547Z,6.42
2022-11-25T05:58:51.940Z,6.44
2022-11-25T06:01:19.920Z,6.45
2022-11-25T06:03:47.770Z,6.42
2022-11-25T06:06:16.493Z,6.37
2022-11-25T06:08:44.922Z,6.36
2022-11-25T06:11:14.285Z,6.38
2022-11-25T06:13:42.408Z,6.41
2022-11-25T06:16:17.160Z,6.39
2022-11-25T06:18:46.026Z,6.41
2022-11-25T06:21:14.467Z,6.44
2022-11-25T06:23:44.731Z,6.49
2022-11-25T06:26:18.537Z,6.56
2022-11-25T06:28:47.008Z,6.59
2022-11-25T06:31:15.993Z,6.60
2022-11-25T06:33:53.681Z,6.62
2022-11-25T06:36:22.064Z,6.62
2022-11-25T06:38:53.345Z,6.62
2022-11-25T06:41:22.175Z,6.62
2022-11-25T06:43:50.164Z,6.61
2022-11-25T06:46:24.356Z,6.59
2022-11-25T06:48:53.152Z,6.58
2022-11-25T06:51:21.010Z,6.57
2022-11-25T06:53:48.725Z,6.55
2022-11-25T06:56:20.851Z,6.53
2022-11-25T06:58:48.897Z,6.46
2022-11-25T07:01:16.690Z,6.43
2022-11-25T07:03:44.855Z,6.38
2022-11-25T07:06:13.175Z,6.39
2022-11-25T07:08:40.811Z,6.41
2022-11-25T07:11:10.455Z,6.42
2022-11-25T07:13:38.309Z,6.40
2022-11-25T07:16:06.675Z,6.39
2022-11-25T07:18:36.000Z,6.44
2022-11-25T07:21:11.414Z,6.49
2022-11-25T07:23:39.475Z,6.50
2022-11-25T07:26:08.256Z,6.51
2022-11-25T07:28:36.117Z,6.49
2022-11-25T07:33:52.884Z,6.39
2022-11-25T07:36:20.604Z,6.39
2022-11-25T07:38:48.428Z,6.43
2022-11-25T07:41:18.246Z,6.44
2022-11-25T07:43:49.655Z,6.43
2022-11-25T07:46:27.043Z,6.45
2022-11-25T07:48:56.118Z,6.50
2022-11-25T07:51:25.220Z,6.51
2022-11-25T07:53:53.493Z,6.50
2022-11-25T07:56:21.821Z,6.50
2022-11-25T07:58:49.503Z,6.52
2022-11-25T08:01:18.456Z,6.61
2022-11-25T08:03:47.151Z,6.83
2022-11-25T08:06:22.039Z,7.00
2022-11-25T08:08:50.163Z,7.11
2022-11-25T08:11:19.676Z,7.20
2022-11-25T08:13:47.570Z,7.25
2022-11-25T08:16:16.583Z,7.35
2022-11-25T08:18:44.498Z,7.39
2022-11-25T08:21:12.797Z,7.39
2022-11-25T08:23:42.955Z,7.40
2022-11-25T08:26:12.134Z,7.37
2022-11-25T08:28:41.321Z,7.38
2022-11-25T08:31:10.495Z,7.36
2022-11-25T08:33:38.450Z,7.33
2022-11-25T08:36:06.472Z,7.33
2022-11-25T08:38:34.206Z,7.36
2022-11-25T08:41:01.838Z,7.37
2022-11-25T08:43:29.860Z,7.38
2022-11-25T08:45:57.579Z,7.40
2022-11-25T08:48:25.235Z,7.44
2022-11-25T08:50:54.256Z,7.52
2022-11-25T08:53:22.198Z,7.59
2022-11-25T08:55:49.831Z,7.63
2022-11-25T08:58:17.457Z,7.65
2022-11-25T09:00:45.523Z,7.72
2022-11-25T09:03:13.395Z,7.80
2022-11-25T09:05:42.013Z,7.91
2022-11-25T09:08:10.039Z,8.03
2022-11-25T09:10:38.716Z,8.17
2022-11-25T09:13:06.800Z,8.29
2022-11-25T09:15:35.484Z,8.41
2022-11-25T09:18:06.739Z,8.52
2022-11-25T09:20:34.608Z,8.56
2022-11-25T09:23:02.435Z,8.58
2022-11-25T09:25:30.367Z,8.62
2022-11-25T09:27:57.969Z,8.60
2022-11-25T09:30:26.014Z,8.57
2022-11-25T09:32:54.171Z,8.55
2022-11-25T09:35:22.269Z,8.58
2022-11-25T09:37:49.889Z,8.68
2022-11-25T09:40:19.075Z,8.77
2022-11-25T09:43:08.400Z,8.97
2022-11-25T09:46:05.863Z,9.26
2022-11-25T09:48:42.546Z,9.46
2022-11-25T09:51:19.401Z,9.56
2022-11-25T09:53:48.248Z,9.65
2022-11-25T09:56:15.927Z,9.67
2022-11-25T09:58:48.517Z,9.67
2022-11-25T10:01:18.032Z,9.68
2022-11-25T10:04:09.087Z,9.73
2022-11-25T10:06:37.574Z,9.84
2022-11-25T10:09:10.800Z,9.96
2022-11-25T10:11:44.509Z,10.06
2022-11-25T10:14:15.740Z,10.04
2022-11-25T10:16:52.836Z,10.04
2022-11-25T10:19:31.961Z,9.99
2022-11-25T10:21:59.804Z,9.99
2022-11-25T10:24:27.480Z,10.21
2022-11-25T10:26:58.440Z,10.66
2022-11-25T10:29:27.579Z,11.07
2022-11-25T10:31:57.355Z,11.36
2022-11-25T10:34:51.068Z,11.66
2022-11-25T10:37:25.664Z,11.77
2022-11-25T10:39:53.338Z,11.67
2022-11-25T10:42:21.871Z,11.53
2022-11-25T10:44:53.104Z,11.28
2022-11-25T10:47:33.219Z,11.02
2022-11-25T10:50:18.056Z,10.81
2022-11-25T10:52:50.680Z,10.66
2022-11-25T10:55:20.018Z,10.51
2022-11-25T10:57:47.659Z,10.36
2022-11-25T11:00:26.356Z,10.36
2022-11-25T11:02:54.517Z,10.42
2022-11-25T11:05:23.048Z,10.47
2022-11-25T11:08:06.874Z,10.49
2022-11-25T11:10:34.686Z,10.41
2022-11-25T11:13:03.428Z,10.36
2022-11-25T11:15:32.229Z,10.29
2022-11-25T11:18:01.065Z,10.20
2022-11-25T11:20:29.473Z,10.03
2022-11-25T11:22:58.880Z,9.98
2022-11-25T11:25:27.672Z,9.94
2022-11-25T11:27:55.831Z,9.94
2022-11-25T11:30:24.705Z,9.90
2022-11-25T11:33:01.367Z,9.81
2022-11-25T11:35:41.852Z,9.76
2022-11-25T11:38:33.106Z,9.73
2022-11-25T11:41:06.084Z,9.70
2022-11-25T11:43:54.398Z,9.68
2022-11-25T11:46:28.094Z,9.73
2022-11-25T11:49:14.546Z,9.78
2022-11-25T11:51:54.453Z,9.84
2022-11-25T11:54:31.250Z,9.86
2022-11-25T11:57:06.460Z,9.87
2022-11-25T11:59:53.489Z,9.76
2022-11-25T12:02:26.352Z,9.71
2022-11-25T12:05:03.169Z,9.73
2022-11-25T12:07:40.190Z,9.77
2022-11-25T12:10:10.689Z,9.77
2022-11-25T12:12:39.201Z,9.76
2022-11-25T12:15:13.041Z,9.80
2022-11-25T12:17:48.923Z,9.83
2022-11-25T12:20:16.563Z,9.83
2022-11-25T12:22:46.863Z,9.78
2022-11-25T12:25:21.648Z,9.73
2022-11-25T12:27:52.420Z,9.69
2022-11-25T12:30:21.112Z,9.68
2022-11-25T12:32:48.711Z,9.66
2022-11-25T12:35:18.564Z,9.62
2022-11-25T12:38:04.912Z,9.60
2022-11-25T12:40:35.607Z,9.62
2022-11-25T12:43:29.302Z,9.60
2022-11-25T12:46:05.997Z,9.65
2022-11-25T12:48:33.628Z,9.73
2022-11-25T12:51:01.262Z,9.81
2022-11-25T12:53:47.530Z,9.89
2022-11-25T12:56:19.988Z,9.92
2022-11-25T12:58:57.088Z,9.92
2022-11-25T13:01:30.527Z,9.94
2022-11-25T13:04:03.545Z,9.96
2022-11-25T13:06:41.305Z,9.97
2022-11-25T13:09:14.666Z,9.97
2022-11-25T13:11:43.033Z,9.95
2022-11-25T13:14:11.308Z,9.96
2022-11-25T13:16:39.754Z,9.95
2022-11-25T13:19:13.884Z,9.90
2022-11-25T13:22:00.457Z,9.85
2022-11-25T13:24:38.144Z,9.80
2022-11-25T13:27:06.299Z,9.74
2022-11-25T13:29:40.295Z,9.68
2022-11-25T13:32:27.631Z,9.66
2022-11-25T13:35:13.866Z,9.57
2022-11-25T13:37:41.518Z,9.47
2022-11-25T13:40:30.930Z,9.45
2022-11-25T13:43:00.524Z,9.46
2022-11-25T13:45:29.964Z,9.49
2022-11-25T13:48:24.046Z,9.53
2022-11-25T13:53:39.718Z,9.64
2022-11-25T13:56:13.684Z,9.65
2022-11-25T13:58:41.740Z,9.68
2022-11-25T14:01:29.202Z,9.67
2022-11-25T14:03:57.960Z,9.65
2022-11-25T14:06:34.580Z,9.62
2022-11-25T14:09:09.451Z,9.61
2022-11-25T14:11:37.080Z,9.58
2022-11-25T14:14:13.911Z,9.54
2022-11-25T14:17:00.829Z,9.47
2022-11-25T14:19:51.566Z,9.44
2022-11-25T14:22:26.696Z,9.41
2022-11-25T14:25:01.860Z,9.38
2022-11-25T14:27:29.960Z,9.36
2022-11-25T14:30:02.621Z,9.33
2022-11-25T14:32:30.279Z,9.31
2022-11-25T14:35:04.057Z,9.29
2022-11-25T14:37:37.971Z,9.26
2022-11-25T14:40:14.023Z,9.27
2022-11-25T14:42:43.208Z,9.28
2022-11-25T14:45:21.289Z,9.29
2022-11-25T14:47:49.296Z,9.31
2022-11-25T14:53:08.357Z,9.37
2022-11-25T14:55:36.140Z,9.37
2022-11-25T14:58:03.964Z,9.37
2022-11-25T15:00:31.695Z,9.36
2022-11-25T15:03:03.565Z,9.34
2022-11-25T15:05:35.939Z,9.31
2022-11-25T15:08:08.864Z,9.30
2022-11-25T15:10:38.769Z,9.26
2022-11-25T15:13:09.838Z,9.23
2022-11-25T15:15:37.471Z,9.21
2022-11-25T15:18:06.323Z,9.17
2022-11-25T15:20:35.234Z,9.11
2022-11-25T15:23:03.289Z,9.01
2022-11-25T15:25:30.912Z,8.94
2022-11-25T15:27:58.672Z,8.92
2022-11-25T15:30:27.771Z,8.91
2022-11-25T15:32:55.412Z,8.91
2022-11-25T15:35:24.720Z,8.88
2022-11-25T15:37:54.339Z,8.85
2022-11-25T15:40:36.555Z,8.84
2022-11-25T15:43:05.510Z,8.86
2022-11-25T15:45:38.222Z,8.89
2022-11-25T15:48:06.234Z,8.90
2022-11-25T15:50:35.245Z,8.88
2022-11-25T15:53:02.964Z,8.90
2022-11-25T15:55:31.763Z,8.92
2022-11-25T15:58:06.637Z,8.92
2022-11-25T16:00:34.341Z,8.86
2022-11-25T16:03:04.106Z,8.77
2022-11-25T16:05:35.885Z,8.74
2022-11-25T16:08:21.247Z,8.74
2022-11-25T16:10:50.675Z,8.74
2022-11-25T16:13:22.506Z,8.73
2022-11-25T16:15:52.275Z,8.70
2022-11-25T16:21:12.675Z,8.65
2022-11-25T16:23:42.414Z,8.61
2022-11-25T16:26:13.135Z,8.51
2022-11-25T16:28:50.080Z,8.38
2022-11-25T16:31:18.062Z,8.26
2022-11-25T16:33:45.764Z,8.26
2022-11-25T16:36:13.443Z,8.32
2022-11-25T16:38:41.101Z,8.40
2022-11-25T16:41:09.835Z,8.49
2022-11-25T16:43:39.303Z,8.55
2022-11-25T16:46:06.972Z,8.57
2022-11-25T16:48:34.788Z,8.61
2022-11-25T16:51:02.545Z,8.62
2022-11-25T16:53:30.135Z,8.60
2022-11-25T16:55:57.784Z,8.56
2022-11-25T16:58:25.521Z,8.53
2022-11-25T17:00:54.959Z,8.45
2022-11-25T17:03:26.147Z,8.39
2022-11-25T17:05:55.161Z,8.36
2022-11-25T17:08:22.873Z,8.36
2022-11-25T17:10:50.712Z,8.35
2022-11-25T17:13:19.136Z,8.28
2022-11-25T17:15:46.937Z,8.22
2022-11-25T17:18:17.074Z,8.17
2022-11-25T17:20:45.388Z,8.12
2022-11-25T17:23:13.973Z,8.08
2022-11-25T17:25:43.018Z,8.06
2022-11-25T17:28:13.763Z,8.07
2022-11-25T17:30:41.459Z,8.07
2022-11-25T17:33:16.104Z,8.08
2022-11-25T17:35:44.145Z,8.04
2022-11-25T17:38:18.545Z,8.01
2022-11-25T17:40:46.281Z,7.99
2022-11-25T17:43:18.233Z,7.97
2022-11-25T17:45:46.072Z,7.89
2022-11-25T17:48:15.248Z,7.81
2022-11-25T17:50:42.948Z,7.77
2022-11-25T17:53:10.719Z,7.72
2022-11-25T17:55:38.331Z,7.67
2022-11-25T17:58:06.381Z,7.60
2022-11-25T18:00:34.633Z,7.51
2022-11-25T18:03:02.398Z,7.41
2022-11-25T18:05:30.246Z,7.32
2022-11-25T18:07:58.143Z,7.26
2022-11-25T18:10:27.197Z,7.18
2022-11-25T18:12:55.523Z,7.10
2022-11-25T18:15:24.847Z,7.01
2022-11-25T18:17:54.578Z,6.94
2022-11-25T18:20:23.871Z,6.83
2022-11-25T18:22:52.172Z,6.78
2022-11-25T18:25:20.951Z,6.72
2022-11-25T18:27:48.705Z,6.65
2022-11-25T18:30:27.354Z,6.59
2022-11-25T18:32:56.226Z,6.52
2022-11-25T18:35:25.284Z,6.52
2022-11-25T18:37:53.146Z,6.54
2022-11-25T18:40:20.863Z,6.52
2022-11-25T18:42:49.330Z,6.47
2022-11-25T18:45:21.592Z,6.43
2022-11-25T18:47:49.324Z,6.37
2022-11-25T18:50:18.419Z,6.32
2022-11-25T18:52:46.199Z,6.23
2022-11-25T18:55:15.602Z,6.16
2022-11-25T18:57:45.225Z,6.11
2022-11-25T19:00:31.588Z,6.04
2022-11-25T19:03:00.314Z,5.91
2022-11-25T19:05:32.491Z,5.82
2022-11-25T19:08:00.460Z,5.77
2022-11-25T19:10:29.943Z,5.70
2022-11-25T19:12:58.195Z,5.63
2022-11-25T19:15:26.048Z,5.56
2022-11-25T19:18:00.485Z,5.50
2022-11-25T19:20:30.030Z,5.40
2022-11-25T19:23:01.159Z,5.31
2022-11-25T19:25:29.210Z,5.23
2022-11-25T19:27:57.747Z,5.17
2022-11-25T19:30:26.488Z,5.08
2022-11-25T19:32:54.832Z,4.95
2022-11-25T19:35:40.428Z,4.85
2022-11-25T19:38:11.474Z,4.81
2022-11-25T19:40:40.460Z,4.79
2022-11-25T19:43:08.644Z,4.75
2022-11-25T19:45:36.507Z,4.69
2022-11-25T19:48:05.839Z,4.64
2022-11-25T19:50:34.064Z,4.55
2022-11-25T19:53:01.732Z,4.48
2022-11-25T19:55:29.939Z,4.44
2022-11-25T19:57:57.776Z,4.32
2022-11-25T20:00:25.596Z,4.27
2022-11-25T20:02:54.919Z,4.26
2022-11-25T20:05:29.582Z,4.24
2022-11-25T20:07:57.306Z,4.24
2022-11-25T20:10:26.487Z,4.22
2022-11-25T20:12:54.628Z,4.15
2022-11-25T20:15:22.468Z,4.10
2022-11-25T20:17:54.416Z,4.06
2022-11-25T20:20:28.042Z,4.07
2022-11-25T20:23:05.437Z,4.10
2022-11-25T20:25:36.593Z,4.07
2022-11-25T20:28:04.309Z,4.07
2022-11-25T20:30:32.052Z,4.08
2022-11-25T20:32:59.764Z,4.04
2022-11-25T20:35:27.509Z,3.97
2022-11-25T20:37:57.808Z,3.89
2022-11-25T20:40:46.018Z,3.86
2022-11-25T20:43:34.455Z,3.87
2022-11-25T20:46:13.868Z,3.84
2022-11-25T20:48:43.647Z,3.86
2022-11-25T20:51:19.923Z,3.88
2022-11-25T20:53:48.644Z,3.86
2022-11-25T20:56:23.679Z,3.86
2022-11-25T20:58:51.362Z,3.88
2022-11-25T21:01:19.229Z,3.92
2022-11-25T21:03:47.836Z,3.95
2022-11-25T21:06:26.845Z,3.98
2022-11-25T21:08:55.023Z,4.00
2022-11-25T21:11:22.884Z,4.00
2022-11-25T21:13:51.820Z,3.99
2022-11-25T21:16:19.859Z,3.98
2022-11-25T21:18:47.551Z,3.90
2022-11-25T21:21:18.975Z,3.86
2022-11-25T21:23:46.723Z,3.90
2022-11-25T21:26:18.595Z,3.91
2022-11-25T21:28:47.027Z,3.94
2022-11-25T21:31:16.747Z,3.97
2022-11-25T21:33:45.270Z,3.98
2022-11-25T21:36:15.257Z,3.96
2022-11-25T21:38:44.072Z,4.02
2022-11-25T21:41:11.689Z,4.12
2022-11-25T21:43:40.859Z,4.21
2022-11-25T21:46:10.697Z,4.26
2022-11-25T21:48:40.011Z,4.23
2022-11-25T21:51:09.923Z,4.21
2022-11-25T21:53:37.759Z,4.18
2022-11-25T21:56:16.154Z,4.26
2022-11-25T21:58:43.871Z,4.33
2022-11-25T22:01:12.031Z,4.39
2022-11-25T22:03:39.885Z,4.46
2022-11-25T22:06:30.733Z,4.50
2022-11-25T22:08:58.368Z,4.51
2022-11-25T22:11:32.999Z,4.50
2022-11-25T22:14:00.922Z,4.50
2022-11-25T22:16:29.672Z,4.48
2022-11-25T22:18:57.674Z,4.45
2022-11-25T22:21:25.403Z,4.39
2022-11-25T22:23:53.128Z,4.28
2022-11-25T22:26:21.674Z,4.24
2022-11-25T22:28:50.462Z,4.27
2022-11-25T22:31:18.206Z,4.27
2022-11-25T22:33:45.879Z,4.27
2022-11-25T22:36:28.739Z,4.26
2022-11-25T22:38:57.413Z,4.24
2022-11-25T22:41:25.079Z,4.21
2022-11-25T22:43:52.682Z,4.19
2022-11-25T22:46:20.363Z,4.18
2022-11-25T22:48:48.184Z,4.20
2022-11-25T22:51:17.131Z,4.23
2022-11-25T22:53:44.792Z,4.27
2022-11-25T22:56:19.410Z,4.33
2022-11-25T22:58:47.421Z,4.37
2022-11-25T23:01:15.925Z,4.44
2022-11-25T23:03:43.684Z,4.51
2022-11-25T23:06:14.198Z,4.52
2022-11-25T23:08:41.808Z,4.57
2022-11-25T23:11:14.708Z,4.63
2022-11-25T23:13:42.701Z,4.68
2022-11-25T23:16:10.390Z,4.70
2022-11-25T23:18:39.634Z,4.71
2022-11-25T23:21:07.737Z,4.73
2022-11-25T23:23:35.471Z,4.74
2022-11-25T23:26:03.249Z,4.75
2022-11-25T23:28:30.883Z,4.76
2022-11-25T23:30:59.097Z,4.77
2022-11-25T23:33:31.568Z,4.78
2022-11-25T23:35:59.453Z,4.84
2022-11-25T23:38:28.604Z,4.89
2022-11-25T23:40:56.248Z,4.95
2022-11-25T23:43:23.893Z,5.01
2022-11-25T23:45:52.810Z,5.08
2022-11-25T23:48:21.490Z,5.13
2022-11-25T23:50:49.125Z,5.20
2022-11-25T23:53:21.837Z,5.25
2022-11-25T23:55:49.527Z,5.29
2022-11-25T23:58:18.546Z,5.32
